Time;durP1;ratioP1;P1;durP2;ratioP2;P2;SDS_P1;SDS_P2;PMS_P1;PMS_P2;Temp;Humidity;BMP_temperature;BMP_pressure;BME280_temperature;BME280_humidity;BME280_pressure;Samples;Min_cycle;Max_cycle;Signal;HPM_P1;HPM_P2
2023/07/24 00:02:09;;;;;;;12.57;4.90;;;17.00;99.90;;;;;;5015380;28;20132;-72
2023/07/24 00:04:34;;;;;;;10.90;4.97;;;17.00;99.90;;;;;;5033395;28;20037;-73
2023/07/24 00:07:03;;;;;;;14.13;5.53;;;17.00;99.90;;;;;;5033803;28;20045;-73
2023/07/24 00:09:29;;;;;;;10.40;4.53;;;17.90;99.90;;;;;;5015155;28;20481;-72
2023/07/24 00:11:55;;;;;;;11.07;4.65;;;16.90;99.90;;;;;;5033255;28;20056;-72
2023/07/24 00:14:21;;;;;;;13.20;4.90;;;17.00;99.90;;;;;;5032937;28;20041;-73
2023/07/24 00:16:46;;;;;;;16.13;4.60;;;17.00;99.90;;;;;;5032046;28;20128;-72
2023/07/24 00:19:14;;;;;;;10.10;4.57;;;17.00;99.90;;;;;;5015990;28;20041;-73
2023/07/24 00:21:40;;;;;;;12.35;4.80;;;17.00;99.90;;;;;;5015167;28;20060;-72
2023/07/24 00:24:06;;;;;;;12.43;4.60;;;17.00;99.90;;;;;;5014847;28;20386;-72
2023/07/24 00:26:31;;;;;;;15.75;4.72;;;17.00;99.90;;;;;;5032632;28;20052;-73
2023/07/24 00:28:58;;;;;;;13.23;4.65;;;16.90;99.90;;;;;;5015208;28;20140;-73
2023/07/24 00:31:24;;;;;;;11.77;4.45;;;17.00;99.90;;;;;;5032879;28;20448;-73
2023/07/24 00:33:50;;;;;;;11.60;4.95;;;17.00;99.90;;;;;;5015006;28;20565;-72
2023/07/24 00:36:16;;;;;;;12.07;4.60;;;17.00;99.90;;;;;;5014683;28;20037;-72
2023/07/24 00:38:41;;;;;;;12.50;5.10;;;17.00;99.90;;;;;;5033018;28;20117;-72
2023/07/24 00:41:07;;;;;;;9.90;4.53;;;17.00;99.90;;;;;;5033122;28;20513;-72
2023/07/24 00:43:33;;;;;;;10.55;4.47;;;16.90;99.90;;;;;;5032193;28;20127;-74
2023/07/24 00:45:59;;;;;;;11.13;4.13;;;17.00;99.90;;;;;;5032973;28;20040;-73
2023/07/24 00:48:25;;;;;;;12.48;4.82;;;16.90;99.90;;;;;;5015630;28;20049;-73
2023/07/24 00:50:51;;;;;;;10.02;4.10;;;16.90;99.90;;;;;;5014224;28;20090;-72
2023/07/24 00:53:19;;;;;;;11.00;4.75;;;16.90;99.90;;;;;;5015834;28;20053;-73
2023/07/24 00:55:45;;;;;;;10.73;4.55;;;16.80;99.90;;;;;;5015295;28;20053;-73
2023/07/24 00:58:12;;;;;;;13.20;5.20;;;16.70;99.90;;;;;;5014488;28;20053;-72
2023/07/24 01:00:39;;;;;;;15.95;4.70;;;16.70;99.90;;;;;;5032223;28;20128;-72
2023/07/24 01:03:05;;;;;;;13.27;4.82;;;16.70;99.90;;;;;;5015161;28;20049;-73
2023/07/24 01:05:31;;;;;;;13.13;4.45;;;16.70;99.90;;;;;;5032127;28;20129;-73
2023/07/24 01:07:59;;;;;;;12.05;4.18;;;16.70;99.90;;;;;;5032887;28;20045;-74
2023/07/24 01:10:25;;;;;;;9.85;4.13;;;16.80;99.90;;;;;;5015591;28;20045;-73
2023/07/24 01:12:53;;;;;;;8.63;4.15;;;16.80;99.90;;;;;;5014376;28;20826;-73
2023/07/24 01:15:30;;;;;;;11.48;4.53;;;16.80;99.90;;;;;;5014943;28;20171;-72
2023/07/24 01:18:00;;;;;;;10.43;4.57;;;16.80;99.90;;;;;;5013816;28;20049;-73
2023/07/24 01:20:30;;;;;;;12.82;4.68;;;16.80;99.90;;;;;;5032246;28;20041;-72
2023/07/24 01:23:05;;;;;;;11.82;4.55;;;16.80;99.90;;;;;;5014839;28;20075;-73
2023/07/24 01:25:36;;;;;;;12.57;5.10;;;16.80;99.90;;;;;;5014598;28;20041;-73
2023/07/24 01:28:09;;;;;;;9.13;4.15;;;16.90;99.90;;;;;;5032048;28;20060;-73
2023/07/24 01:30:35;;;;;;;12.40;5.05;;;17.00;99.90;;;;;;5014853;28;20049;-73
2023/07/24 01:33:01;;;;;;;11.32;4.70;;;17.00;99.90;;;;;;5014551;28;20064;-72
2023/07/24 01:35:33;;;;;;;10.02;4.75;;;17.00;99.90;;;;;;5015349;28;20404;-72
2023/07/24 01:38:00;;;;;;;15.05;4.80;;;17.00;99.90;;;;;;5015516;28;20049;-73
2023/07/24 01:40:25;;;;;;;15.52;5.10;;;17.00;99.90;;;;;;5014744;28;20103;-72
2023/07/24 01:42:51;;;;;;;13.35;5.28;;;17.10;99.90;;;;;;5033077;28;20494;-71
2023/07/24 01:45:17;;;;;;;12.18;4.97;;;17.10;99.90;;;;;;5019017;28;20481;-72
2023/07/24 01:47:43;;;;;;;11.60;5.05;;;17.00;99.90;;;;;;5021840;28;20080;-72
2023/07/24 01:50:09;;;;;;;13.75;5.30;;;17.00;99.90;;;;;;5026344;28;20049;-72
2023/07/24 01:52:38;;;;;;;14.90;5.68;;;17.00;99.90;;;;;;5025623;28;20060;-72
2023/07/24 01:55:04;;;;;;;10.25;4.95;;;17.10;99.90;;;;;;5024579;28;20057;-73
2023/07/24 01:57:29;;;;;;;14.85;5.97;;;17.10;99.90;;;;;;5005826;28;20050;-72
2023/07/24 01:59:58;;;;;;;16.50;5.00;;;17.10;99.90;;;;;;5006191;28;20077;-73
2023/07/24 02:02:24;;;;;;;14.88;4.80;;;17.10;99.90;;;;;;4998457;28;20044;-73
2023/07/24 02:04:53;;;;;;;11.82;5.60;;;17.10;99.90;;;;;;5005338;28;20460;-73
2023/07/24 02:07:25;;;;;;;15.82;6.00;;;17.10;99.90;;;;;;5035852;28;20037;-73
2023/07/24 02:09:51;;;;;;;16.85;6.05;;;17.10;99.90;;;;;;5035271;28;20099;-73
2023/07/24 02:12:17;;;;;;;17.77;6.28;;;17.10;99.90;;;;;;5035734;28;20481;-73
2023/07/24 02:14:42;;;;;;;15.18;5.72;;;17.10;99.90;;;;;;5016821;28;20049;-73
2023/07/24 02:17:08;;;;;;;12.25;5.18;;;17.10;99.90;;;;;;5035890;28;20041;-72
2023/07/24 02:19:34;;;;;;;14.57;5.80;;;17.20;99.90;;;;;;5035351;28;20457;-72
2023/07/24 02:22:02;;;;;;;11.43;5.43;;;17.20;99.90;;;;;;5017287;28;20088;-73
2023/07/24 02:24:28;;;;;;;10.73;5.22;;;17.30;99.90;;;;;;5017772;28;20087;-73
2023/07/24 02:26:53;;;;;;;12.38;5.13;;;17.20;99.90;;;;;;5035510;28;20041;-73
2023/07/24 02:29:19;;;;;;;13.40;5.13;;;17.20;99.90;;;;;;5020699;28;20125;-73
2023/07/24 02:31:45;;;;;;;11.15;5.35;;;17.20;99.90;;;;;;5017879;28;20057;-73
2023/07/24 02:34:10;;;;;;;10.02;5.03;;;17.20;99.90;;;;;;5035172;28;20033;-73
2023/07/24 02:36:36;;;;;;;14.73;5.20;;;17.20;99.90;;;;;;5016889;28;20056;-72
2023/07/24 02:39:02;;;;;;;14.55;5.50;;;17.30;99.90;;;;;;5017636;28;20037;-73
2023/07/24 02:41:28;;;;;;;14.35;5.80;;;17.20;99.90;;;;;;5035579;28;20042;-72
2023/07/24 02:43:54;;;;;;;12.57;5.75;;;17.30;99.90;;;;;;5016179;28;20068;-72
2023/07/24 02:46:19;;;;;;;14.10;4.88;;;17.20;99.90;;;;;;5035368;28;20038;-73
2023/07/24 02:48:45;;;;;;;14.57;5.68;;;17.20;99.90;;;;;;5017209;28;20050;-72
2023/07/24 02:51:11;;;;;;;14.70;4.88;;;17.20;99.90;;;;;;5034594;28;20041;-73
2023/07/24 02:53:37;;;;;;;11.05;4.82;;;17.20;99.90;;;;;;5016751;28;20085;-72
2023/07/24 02:56:06;;;;;;;13.00;5.38;;;17.30;99.90;;;;;;5035063;28;20142;-73
2023/07/24 02:58:31;;;;;;;15.40;6.13;;;17.20;99.90;;;;;;5016651;28;20049;-72
2023/07/24 03:01:10;;;;;;;16.60;5.00;;;17.20;99.90;;;;;;5033706;28;20037;-73
2023/07/24 03:03:39;;;;;;;14.68;4.78;;;17.30;99.90;;;;;;5016631;28;20045;-72
2023/07/24 03:06:04;;;;;;;9.68;5.13;;;17.30;99.90;;;;;;5016180;28;20386;-73
2023/07/24 03:08:33;;;;;;;13.93;5.10;;;17.20;99.90;;;;;;5016837;28;20068;-73
2023/07/24 03:10:59;;;;;;;14.48;5.38;;;17.10;99.90;;;;;;5016074;28;20071;-73
2023/07/24 03:13:25;;;;;;;14.77;4.85;;;17.20;99.90;;;;;;5016943;28;20041;-73
2023/07/24 03:15:56;;;;;;;15.75;5.82;;;17.20;99.90;;;;;;5016720;28;20213;-73
2023/07/24 03:18:25;;;;;;;13.57;5.65;;;17.20;99.90;;;;;;5016218;28;20111;-73
2023/07/24 03:20:51;;;;;;;13.38;5.68;;;17.20;99.90;;;;;;5034513;28;20052;-72
2023/07/24 03:23:17;;;;;;;15.77;5.60;;;17.20;99.90;;;;;;5034203;28;20136;-73
2023/07/24 03:25:43;;;;;;;11.68;5.55;;;17.10;99.90;;;;;;5015901;28;20095;-73
2023/07/24 03:28:09;;;;;;;11.30;5.13;;;17.10;99.90;;;;;;5034732;28;20050;-72
2023/07/24 03:30:35;;;;;;;10.30;5.20;;;17.10;99.90;;;;;;5016517;28;20049;-73
2023/07/24 03:33:01;;;;;;;14.93;5.90;;;17.20;99.90;;;;;;5015821;28;20041;-72
2023/07/24 03:35:27;;;;;;;16.42;6.30;;;17.10;99.90;;;;;;5033092;28;20073;-73
2023/07/24 03:37:53;;;;;;;13.65;5.40;;;17.10;99.90;;;;;;5033790;28;20096;-73
2023/07/24 03:40:18;;;;;;;13.38;5.63;;;17.10;99.90;;;;;;5015810;28;20041;-73
2023/07/24 03:42:44;;;;;;;14.52;5.50;;;17.10;99.90;;;;;;5016074;28;20099;-73
2023/07/24 03:45:13;;;;;;;13.30;4.93;;;17.10;99.90;;;;;;5034055;28;20132;-72
2023/07/24 03:47:39;;;;;;;16.20;6.30;;;17.60;99.90;;;;;;5015048;28;20041;-73
2023/07/24 03:50:05;;;;;;;14.25;5.65;;;17.10;99.90;;;;;;5015377;28;20128;-73
2023/07/24 03:52:30;;;;;;;13.48;4.82;;;17.10;99.90;;;;;;5033935;28;20121;-72
2023/07/24 03:54:59;;;;;;;12.93;5.05;;;17.10;99.90;;;;;;5028770;28;20050;-73
2023/07/24 03:57:24;;;;;;;12.55;5.35;;;17.10;99.90;;;;;;5016168;28;20048;-73
2023/07/24 03:59:50;;;;;;;13.93;5.10;;;17.10;99.90;;;;;;5015886;28;20090;-73
2023/07/24 04:02:19;;;;;;;12.77;4.97;;;17.20;99.90;;;;;;5015113;28;20122;-73
2023/07/24 04:04:44;;;;;;;17.30;5.25;;;17.10;99.90;;;;;;5015742;28;20430;-73
2023/07/24 04:07:10;;;;;;;9.82;4.72;;;17.10;99.90;;;;;;5014489;28;20124;-73
2023/07/24 04:09:39;;;;;;;13.38;5.43;;;17.10;99.90;;;;;;5033345;28;20041;-73
2023/07/24 04:12:08;;;;;;;11.40;4.57;;;17.20;99.90;;;;;;5033342;28;20053;-73
2023/07/24 04:14:34;;;;;;;12.63;4.50;;;17.20;99.90;;;;;;5032651;28;20060;-73
2023/07/24 04:17:02;;;;;;;13.07;4.72;;;17.20;99.90;;;;;;5032836;28;20485;-73
2023/07/24 04:19:28;;;;;;;11.10;4.82;;;17.20;99.90;;;;;;5033077;28;20043;-73
2023/07/24 04:21:56;;;;;;;11.30;4.82;;;17.10;99.90;;;;;;5014747;28;20552;-73
2023/07/24 04:24:22;;;;;;;18.17;5.03;;;17.10;99.90;;;;;;5033246;28;20132;-73
2023/07/24 04:26:51;;;;;;;12.40;4.85;;;17.20;99.90;;;;;;5033013;28;20052;-73
2023/07/24 04:29:16;;;;;;;10.50;4.90;;;17.10;99.90;;;;;;5014565;28;20049;-72
2023/07/24 04:31:42;;;;;;;13.70;4.80;;;17.10;99.90;;;;;;5015085;28;20121;-73
2023/07/24 04:34:08;;;;;;;12.63;4.50;;;17.10;99.90;;;;;;5033415;28;20042;-72
2023/07/24 04:36:34;;;;;;;16.35;4.28;;;17.10;99.90;;;;;;5031977;28;20046;-72
2023/07/24 04:38:59;;;;;;;14.20;4.95;;;17.10;99.90;;;;;;5033283;28;20038;-73
2023/07/24 04:41:25;;;;;;;11.57;4.80;;;17.10;99.90;;;;;;5032979;28;20045;-73
2023/07/24 04:43:51;;;;;;;14.50;4.80;;;17.10;99.90;;;;;;5014241;28;20405;-73
2023/07/24 04:46:17;;;;;;;10.70;4.43;;;17.20;99.90;;;;;;5032677;28;20052;-73
2023/07/24 04:48:43;;;;;;;13.25;4.40;;;17.20;99.90;;;;;;5032745;28;20045;-73
2023/07/24 04:51:08;;;;;;;12.07;5.00;;;17.30;99.90;;;;;;5014463;28;20489;-73
2023/07/24 04:53:34;;;;;;;11.52;4.28;;;17.20;99.90;;;;;;5032756;28;20048;-73
2023/07/24 04:56:02;;;;;;;11.02;4.43;;;17.30;99.90;;;;;;5032945;28;20491;-73
2023/07/24 04:58:28;;;;;;;12.10;4.93;;;17.20;99.90;;;;;;5032088;28;20129;-73
2023/07/24 05:00:54;;;;;;;13.18;4.75;;;17.30;99.90;;;;;;5014797;28;20405;-72
2023/07/24 05:03:20;;;;;;;15.45;4.50;;;17.30;99.90;;;;;;5014510;28;20083;-73
2023/07/24 05:05:55;;;;;;;12.00;4.90;;;17.40;99.90;;;;;;5031971;28;20044;-73
2023/07/24 05:08:21;;;;;;;13.25;4.60;;;17.40;99.90;;;;;;5015166;28;20041;-73
2023/07/24 05:10:47;;;;;;;14.55;4.50;;;17.40;99.90;;;;;;5031271;28;20223;-73
2023/07/24 05:13:13;;;;;;;14.27;5.10;;;17.40;99.90;;;;;;5015078;28;20132;-72
2023/07/24 05:15:38;;;;;;;10.57;4.20;;;17.40;99.90;;;;;;5014480;28;20044;-72
2023/07/24 05:18:04;;;;;;;16.52;4.88;;;17.30;99.90;;;;;;5032052;28;20532;-72
2023/07/24 05:20:30;;;;;;;17.92;4.75;;;17.40;99.90;;;;;;5032188;28;20544;-72
2023/07/24 05:22:58;;;;;;;9.68;4.53;;;17.30;99.90;;;;;;5014779;28;20060;-72
2023/07/24 05:25:24;;;;;;;12.95;4.47;;;17.30;99.90;;;;;;5018192;28;20059;-72
2023/07/24 05:27:50;;;;;;;10.63;4.57;;;17.30;99.90;;;;;;5036083;28;20066;-72
2023/07/24 05:30:16;;;;;;;12.70;5.00;;;17.30;99.90;;;;;;5018740;28;20046;-71
2023/07/24 05:32:41;;;;;;;13.10;4.95;;;17.30;99.90;;;;;;5017606;28;20501;-73
2023/07/24 05:35:10;;;;;;;13.07;4.80;;;17.30;99.90;;;;;;5018191;28;20056;-73
2023/07/24 05:37:36;;;;;;;14.35;5.40;;;17.40;99.90;;;;;;5036219;28;20064;-73
2023/07/24 05:40:02;;;;;;;13.00;5.82;;;17.50;99.90;;;;;;5035679;28;20112;-72
2023/07/24 05:42:28;;;;;;;14.20;5.75;;;17.60;99.90;;;;;;5036444;28;20541;-72
2023/07/24 05:44:53;;;;;;;18.20;5.93;;;17.70;99.90;;;;;;5017712;28;20448;-73
2023/07/24 05:47:19;;;;;;;17.80;5.57;;;17.80;99.90;;;;;;5032701;28;20042;-72
2023/07/24 05:49:48;;;;;;;16.23;5.75;;;17.80;99.90;;;;;;5037888;28;20374;-73
2023/07/24 05:52:14;;;;;;;14.20;5.90;;;17.90;99.90;;;;;;5036962;28;20048;-73
2023/07/24 05:54:40;;;;;;;15.40;5.60;;;17.90;99.90;;;;;;5040809;28;20128;-73
2023/07/24 05:57:06;;;;;;;18.02;6.30;;;18.00;99.90;;;;;;5035300;28;20471;-73
2023/07/24 05:59:32;;;;;;;18.90;5.63;;;18.00;99.90;;;;;;5036296;28;20033;-73
2023/07/24 06:01:57;;;;;;;15.48;5.90;;;18.10;99.90;;;;;;5050369;28;20053;-73
2023/07/24 06:04:23;;;;;;;16.73;5.82;;;18.20;99.90;;;;;;5015994;28;20068;-73
2023/07/24 06:06:49;;;;;;;17.35;6.15;;;18.50;99.90;;;;;;5033020;28;20446;-73
2023/07/24 06:09:15;;;;;;;13.43;5.55;;;18.50;99.90;;;;;;5036991;28;20049;-73
2023/07/24 06:11:40;;;;;;;11.43;5.10;;;18.60;99.90;;;;;;5035845;28;20045;-74
2023/07/24 06:14:06;;;;;;;11.60;5.75;;;18.70;99.90;;;;;;5050215;28;20041;-71
2023/07/24 06:16:32;;;;;;;19.63;6.30;;;18.80;99.90;;;;;;5017026;28;20041;-71
2023/07/24 06:18:58;;;;;;;17.40;5.68;;;18.80;99.90;;;;;;5017094;28;20053;-71
2023/07/24 06:21:23;;;;;;;13.07;5.60;;;18.80;99.90;;;;;;5016607;28;20041;-72
2023/07/24 06:23:49;;;;;;;14.60;5.55;;;18.80;99.90;;;;;;5018638;28;20116;-71
2023/07/24 06:26:15;;;;;;;12.82;6.25;;;18.80;99.90;;;;;;5027499;28;20080;-72
2023/07/24 06:28:41;;;;;;;11.35;5.93;;;18.80;99.90;;;;;;5016898;28;20077;-73
2023/07/24 06:31:06;;;;;;;15.98;6.40;;;18.80;99.90;;;;;;5034726;28;20131;-73
2023/07/24 06:33:35;;;;;;;13.60;5.40;;;18.90;99.90;;;;;;5017374;28;20045;-73
2023/07/24 06:36:01;;;;;;;10.82;5.13;;;18.90;99.90;;;;;;5034852;28;20056;-73
2023/07/24 06:38:26;;;;;;;12.75;4.85;;;18.90;99.90;;;;;;5017872;28;20037;-73
2023/07/24 06:40:52;;;;;;;14.98;5.18;;;19.10;99.90;;;;;;5035240;28;20524;-73
2023/07/24 06:43:18;;;;;;;11.60;5.95;;;19.10;99.90;;;;;;5016183;28;20052;-73
2023/07/24 06:45:43;;;;;;;13.65;5.78;;;19.20;99.90;;;;;;5017312;28;20038;-73
2023/07/24 06:48:09;;;;;;;14.73;5.40;;;19.20;99.90;;;;;;5017141;28;20037;-71
2023/07/24 06:50:35;;;;;;;16.67;5.60;;;19.20;99.90;;;;;;5016022;28;20041;-72
2023/07/24 06:53:00;;;;;;;11.20;5.57;;;19.20;99.90;;;;;;5016864;28;20049;-73
2023/07/24 06:55:26;;;;;;;18.02;6.07;;;19.20;99.90;;;;;;5017262;28;20375;-73
2023/07/24 06:57:52;;;;;;;20.20;5.97;;;19.30;99.90;;;;;;5034027;28;20401;-73
2023/07/24 07:00:18;;;;;;;15.63;5.47;;;19.30;99.90;;;;;;5034446;28;20049;-73
2023/07/24 07:02:44;;;;;;;13.05;5.75;;;19.30;99.90;;;;;;5024270;28;20049;-73
2023/07/24 07:05:09;;;;;;;12.55;5.88;;;19.40;99.90;;;;;;5016519;28;20053;-73
2023/07/24 07:07:35;;;;;;;12.35;5.53;;;19.50;99.90;;;;;;5040200;28;20050;-73
2023/07/24 07:10:01;;;;;;;14.02;5.28;;;19.40;99.90;;;;;;5016328;28;20041;-73
2023/07/24 07:12:26;;;;;;;16.42;5.70;;;19.50;99.90;;;;;;5017189;28;20504;-73
2023/07/24 07:14:52;;;;;;;13.75;5.40;;;19.50;99.90;;;;;;5033573;28;20090;-73
2023/07/24 07:17:18;;;;;;;13.43;5.55;;;19.50;99.90;;;;;;5041893;28;20064;-72
2023/07/24 07:19:47;;;;;;;11.65;4.82;;;19.60;99.90;;;;;;5053250;28;20135;-73
2023/07/24 07:22:12;;;;;;;13.63;5.68;;;19.60;99.90;;;;;;5032116;28;20045;-73
2023/07/24 07:24:38;;;;;;;12.57;5.78;;;19.70;99.90;;;;;;5016003;28;20107;-73
2023/07/24 07:27:04;;;;;;;15.43;5.65;;;19.80;99.90;;;;;;5034324;28;20489;-73
2023/07/24 07:29:32;;;;;;;12.45;5.45;;;20.00;99.90;;;;;;5033755;28;20321;-73
2023/07/24 07:31:57;;;;;;;13.98;4.95;;;20.20;99.90;;;;;;5016202;28;20064;-74
2023/07/24 07:34:23;;;;;;;12.68;5.25;;;20.70;99.90;;;;;;5016082;28;20042;-74
2023/07/24 07:36:49;;;;;;;12.57;4.72;;;20.80;99.90;;;;;;5016659;28;20045;-73
2023/07/24 07:39:15;;;;;;;12.98;5.50;;;20.60;99.90;;;;;;5033540;28;20042;-73
2023/07/24 07:41:43;;;;;;;10.00;4.95;;;20.50;99.90;;;;;;5016074;28;20056;-73
2023/07/24 07:44:09;;;;;;;10.45;5.10;;;20.50;99.90;;;;;;5034277;28;20037;-73
2023/07/24 07:46:35;;;;;;;12.93;5.03;;;20.40;99.90;;;;;;5032530;28;20052;-74
2023/07/24 07:49:00;;;;;;;12.43;4.93;;;20.30;99.90;;;;;;5034503;28;20045;-73
2023/07/24 07:51:27;;;;;;;14.77;5.07;;;20.30;99.90;;;;;;5015998;28;20037;-73
2023/07/24 07:53:52;;;;;;;13.13;5.13;;;20.30;99.90;;;;;;5015381;28;20128;-73
2023/07/24 07:56:18;;;;;;;13.18;5.18;;;20.50;99.90;;;;;;5033929;28;20540;-73
2023/07/24 07:58:43;;;;;;;9.70;4.50;;;20.70;99.90;;;;;;5015632;28;20444;-73
2023/07/24 08:01:09;;;;;;;10.00;5.07;;;20.90;99.90;;;;;;5014768;28;20045;-73
2023/07/24 08:03:35;;;;;;;11.52;5.03;;;21.10;99.90;;;;;;5015447;28;20095;-73
2023/07/24 08:06:01;;;;;;;12.15;4.70;;;21.70;99.90;;;;;;5016100;28;20053;-73
2023/07/24 08:08:26;;;;;;;13.40;4.57;;;21.90;99.90;;;;;;5015103;28;20049;-73
2023/07/24 08:10:55;;;;;;;11.13;5.18;;;22.00;99.90;;;;;;5015259;28;20053;-73
2023/07/24 08:13:23;;;;;;;11.32;4.90;;;21.80;99.90;;;;;;5014229;28;20045;-73
2023/07/24 08:15:50;;;;;;;8.70;3.88;;;21.50;99.90;;;;;;5033321;28;20053;-73
2023/07/24 08:18:16;;;;;;;8.60;4.38;;;21.00;99.90;;;;;;5015608;28;20137;-73
2023/07/24 08:20:44;;;;;;;11.88;4.95;;;20.60;99.90;;;;;;5032360;28;20037;-73
2023/07/24 08:23:10;;;;;;;9.68;4.55;;;20.30;99.90;;;;;;5015550;28;20377;-74
2023/07/24 08:25:35;;;;;;;6.95;4.50;;;20.00;99.90;;;;;;5032860;28;20047;-73
2023/07/24 08:28:01;;;;;;;9.23;4.78;;;19.90;99.90;;;;;;5013069;28;20137;-73
2023/07/24 08:30:27;;;;;;;9.20;4.85;;;19.70;99.90;;;;;;4992122;28;20387;-73
2023/07/24 08:32:53;;;;;;;8.77;5.30;;;19.60;99.90;;;;;;4993152;28;20391;-73
2023/07/24 08:35:19;;;;;;;10.02;5.60;;;19.70;99.90;;;;;;4992954;28;20121;-74
2023/07/24 08:37:45;;;;;;;10.45;5.97;;;20.10;99.90;;;;;;4993798;28;20522;-74
2023/07/24 08:40:14;;;;;;;8.25;4.38;;;20.70;99.90;;;;;;4993932;28;20141;-74
2023/07/24 08:42:44;;;;;;;7.60;4.30;;;21.10;99.90;;;;;;4990939;28;20533;-74
2023/07/24 08:45:15;;;;;;;7.15;4.30;;;21.10;99.90;;;;;;4993127;28;20392;-77
2023/07/24 08:47:45;;;;;;;5.95;4.65;;;21.00;99.90;;;;;;4996819;28;20041;-75
2023/07/24 08:50:15;;;;;;;6.65;4.03;;;20.70;99.90;;;;;;4995093;28;20498;-75
2023/07/24 08:52:46;;;;;;;6.15;4.10;;;20.50;99.90;;;;;;4993663;28;20042;-75
2023/07/24 08:55:12;;;;;;;7.47;4.50;;;20.70;99.90;;;;;;4996748;28;20061;-77
2023/07/24 08:57:38;;;;;;;8.32;4.57;;;21.10;99.90;;;;;;5011092;28;20054;-76
2023/07/24 09:00:05;;;;;;;8.13;4.40;;;21.40;99.90;;;;;;4984650;28;20096;-75
2023/07/24 09:02:35;;;;;;;6.63;3.88;;;21.50;99.90;;;;;;4992622;28;20042;-75
2023/07/24 09:05:04;;;;;;;6.85;3.95;;;21.60;99.90;;;;;;4993452;28;20038;-75
2023/07/24 09:07:33;;;;;;;8.02;4.00;;;21.90;99.90;;;;;;4993738;28;20039;-75
2023/07/24 09:09:59;;;;;;;5.93;3.60;;;22.40;99.90;;;;;;4992289;28;20073;-75
2023/07/24 09:12:25;;;;;;;6.00;3.97;;;22.50;99.90;;;;;;4978977;28;20081;-77
2023/07/24 09:15:04;;;;;;;8.05;3.67;;;22.30;99.90;;;;;;4979908;28;20038;-75
2023/07/24 09:17:30;;;;;;;4.53;3.67;;;22.10;99.90;;;;;;4978616;28;20093;-76
2023/07/24 09:19:57;;;;;;;7.15;4.10;;;22.20;99.90;;;;;;4993323;28;20161;-75
2023/07/24 09:22:23;;;;;;;6.40;4.75;;;22.20;99.90;;;;;;5007326;28;20045;-75
2023/07/24 09:24:57;;;;;;;5.82;4.60;;;21.80;99.90;;;;;;4992218;28;20038;-75
2023/07/24 09:27:29;;;;;;;6.78;4.45;;;21.80;99.90;;;;;;4983861;28;20370;-74
2023/07/24 09:29:55;;;;;;;7.85;5.40;;;21.90;99.90;;;;;;5026992;28;20052;-75
2023/07/24 09:32:26;;;;;;;7.13;4.63;;;22.20;99.90;;;;;;5030573;28;20052;-76
2023/07/24 09:34:55;;;;;;;6.47;4.15;;;22.30;99.90;;;;;;5030867;28;20045;-77
2023/07/24 09:37:27;;;;;;;6.72;3.92;;;22.70;99.90;;;;;;5031411;28;20042;-76
2023/07/24 09:39:53;;;;;;;6.55;3.78;;;23.10;99.90;;;;;;5030382;28;20045;-78
2023/07/24 09:42:31;;;;;;;6.03;3.92;;;23.40;99.90;;;;;;5021775;28;20069;-77
2023/07/24 09:44:57;;;;;;;6.03;4.53;;;23.70;99.90;;;;;;5012389;28;20050;-80
2023/07/24 09:47:23;;;;;;;6.32;3.80;;;23.70;99.90;;;;;;5012698;28;20050;-78
2023/07/24 09:49:50;;;;;;;6.47;4.60;;;23.50;99.90;;;;;;5011394;28;20058;-79
2023/07/24 09:52:18;;;;;;;7.20;5.15;;;23.40;99.90;;;;;;5012560;28;20057;-79
2023/07/24 09:55:10;;;;;;;7.95;5.35;;;23.20;99.90;;;;;;5012245;28;20088;-79
2023/07/24 09:57:39;;;;;;;9.45;5.05;;;23.00;99.90;;;;;;5012412;28;20571;-78
2023/07/24 10:00:07;;;;;;;6.53;4.03;;;23.00;99.90;;;;;;5011422;28;20461;-73
2023/07/24 10:02:33;;;;;;;6.50;3.75;;;23.40;99.90;;;;;;5014165;28;20054;-80
2023/07/24 10:05:05;;;;;;;5.38;4.25;;;23.70;99.90;;;;;;5019219;28;20061;-76
2023/07/24 10:07:34;;;;;;;6.15;4.32;;;24.50;99.90;;;;;;5021973;28;20042;-75
2023/07/24 10:10:01;;;;;;;6.35;4.05;;;24.40;99.90;;;;;;5021225;28;20050;-79
2023/07/24 10:12:27;;;;;;;5.60;4.30;;;24.80;99.90;;;;;;5038418;28;20045;-78
2023/07/24 10:14:56;;;;;;;6.70;4.82;;;24.50;99.90;;;;;;5025279;28;20061;-78
2023/07/24 10:17:39;;;;;;;6.97;4.38;;;24.20;99.90;;;;;;5021147;28;20041;-78
2023/07/24 10:20:07;;;;;;;5.32;3.88;;;23.60;99.90;;;;;;5030197;28;20108;-76
2023/07/24 10:22:33;;;;;;;6.45;5.10;;;23.40;99.90;;;;;;5034336;28;20489;-76
2023/07/24 10:25:02;;;;;;;7.85;5.07;;;23.40;99.90;;;;;;5028813;28;20042;-76
2023/07/24 10:27:28;;;;;;;5.88;4.28;;;23.20;99.90;;;;;;5013216;28;20576;-77
2023/07/24 10:30:06;;;;;;;8.13;5.20;;;23.20;99.90;;;;;;5013942;28;20058;-77
2023/07/24 10:32:33;;;;;;;6.53;4.50;;;23.30;99.90;;;;;;5013477;28;20053;-76
2023/07/24 10:35:08;;;;;;;5.93;4.65;;;23.30;99.90;;;;;;5013174;28;20099;-76
2023/07/24 10:37:35;;;;;;;;;;;23.20;99.90;;;;;;5015826;28;20065;-75
2023/07/24 10:40:01;;;;;;;6.75;5.07;;;23.00;99.90;;;;;;5002136;28;19921;-76
2023/07/24 10:42:27;;;;;;;7.03;4.60;;;22.70;99.90;;;;;;5014258;28;20041;-77
2023/07/24 10:45:06;;;;;;;7.07;4.43;;;22.90;99.90;;;;;;5005547;28;20416;-77
2023/07/24 10:47:33;;;;;;;6.70;5.15;;;23.10;99.90;;;;;;5013880;28;20093;-77
2023/07/24 10:50:01;;;;;;;6.90;5.00;;;23.30;99.90;;;;;;5014528;28;20053;-77
2023/07/24 10:52:33;;;;;;;8.60;4.80;;;23.40;99.90;;;;;;5014810;28;20485;-77
2023/07/24 10:55:03;;;;;;;7.15;5.10;;;23.40;99.90;;;;;;5014649;28;20034;-77
2023/07/24 10:57:30;;;;;;;7.82;4.47;;;23.50;99.90;;;;;;5010756;28;20042;-78
2023/07/24 10:59:55;;;;;;;6.22;4.68;;;23.70;99.90;;;;;;4994451;28;20046;-80
2023/07/24 11:02:22;;;;;;;6.15;4.10;;;23.50;99.90;;;;;;5006778;28;20042;-80
2023/07/24 11:04:48;;;;;;;4.78;3.55;;;23.70;99.90;;;;;;4997133;28;20078;-76
2023/07/24 11:07:16;;;;;;;6.35;3.72;;;23.50;99.90;;;;;;4986081;28;20073;-77
2023/07/24 11:09:43;;;;;;;4.72;3.80;;;23.30;99.90;;;;;;4994628;28;20379;-77
2023/07/24 11:12:16;;;;;;;5.05;3.53;;;23.10;99.90;;;;;;4992512;28;20046;-76
2023/07/24 11:14:56;;;;;;;5.38;3.60;;;22.90;99.90;;;;;;4985108;28;20398;-76
2023/07/24 11:17:45;;;;;;;4.20;3.10;;;23.10;99.90;;;;;;4992545;28;20125;-76
2023/07/24 11:20:13;;;;;;;3.55;2.45;;;23.10;99.90;;;;;;4992221;28;20049;-74
2023/07/24 11:22:41;;;;;;;4.43;2.70;;;23.50;99.90;;;;;;4982120;28;20042;-74
2023/07/24 11:25:07;;;;;;;4.15;2.55;;;23.70;99.90;;;;;;4995917;28;20042;-74
2023/07/24 11:27:38;;;;;;;3.78;2.40;;;23.60;99.90;;;;;;5007322;28;20140;-75
2023/07/24 11:30:05;;;;;;;3.28;1.80;;;23.40;99.90;;;;;;5010112;28;20053;-75
2023/07/24 11:32:30;;;;;;;3.50;1.55;;;23.40;99.90;;;;;;5016277;28;20144;-74
2023/07/24 11:34:57;;;;;;;2.97;1.60;;;23.20;99.90;;;;;;5012112;28;20068;-74
2023/07/24 11:37:22;;;;;;;3.53;1.45;;;23.20;99.90;;;;;;5012167;28;20053;-75
2023/07/24 11:39:59;;;;;;;3.92;1.60;;;23.40;99.90;;;;;;5027815;28;20034;-77
2023/07/24 11:42:27;;;;;;;3.38;1.52;;;23.50;99.90;;;;;;5004635;28;20049;-76
2023/07/24 11:44:53;;;;;;;2.70;1.33;;;23.60;99.90;;;;;;5004134;28;20056;-80
2023/07/24 11:47:19;;;;;;;2.13;1.00;;;23.70;99.90;;;;;;5035741;28;20045;-76
2023/07/24 11:50:00;;;;;;;1.90;1.10;;;23.90;99.90;;;;;;5007139;28;20383;-77
2023/07/24 11:52:26;;;;;;;3.13;1.20;;;24.00;99.90;;;;;;5025448;28;20210;-77
2023/07/24 11:55:03;;;;;;;3.80;1.50;;;24.00;99.90;;;;;;5015141;28;20045;-78
2023/07/24 11:57:31;;;;;;;2.95;1.10;;;23.90;99.90;;;;;;5004727;28;20055;-77
2023/07/24 11:59:58;;;;;;;2.70;1.10;;;23.60;99.90;;;;;;5032688;28;20516;-77
2023/07/24 12:02:28;;;;;;;2.53;1.15;;;23.10;99.90;;;;;;5026027;28;20441;-77
2023/07/24 12:04:57;;;;;;;4.50;1.13;;;22.70;99.90;;;;;;5031682;28;20459;-76
2023/07/24 12:07:31;;;;;;;3.78;1.10;;;22.40;99.90;;;;;;5013638;28;20037;-77
2023/07/24 12:09:57;;;;;;;3.20;1.15;;;22.40;99.90;;;;;;5011849;28;20069;-76
2023/07/24 12:12:23;;;;;;;4.35;1.10;;;22.20;99.90;;;;;;5002009;28;20124;-77
2023/07/24 12:14:48;;;;;;;4.13;1.25;;;22.20;99.90;;;;;;5032831;28;20471;-77
2023/07/24 12:17:20;;;;;;;6.03;1.60;;;22.10;99.90;;;;;;5018715;28;20034;-77
2023/07/24 12:19:46;;;;;;;4.25;1.45;;;22.00;99.90;;;;;;5028682;28;20044;-77
2023/07/24 12:22:12;;;;;;;6.25;1.70;;;21.90;99.90;;;;;;5014656;28;20061;-78
2023/07/24 12:24:38;;;;;;;5.57;1.50;;;21.70;99.90;;;;;;5015025;28;20048;-75
2023/07/24 12:27:04;;;;;;;4.43;1.40;;;21.60;99.90;;;;;;5030635;28;20037;-79
2023/07/24 12:29:32;;;;;;;4.35;1.30;;;21.90;99.90;;;;;;5027577;28;20175;-77
2023/07/24 12:31:58;;;;;;;6.32;1.50;;;22.30;99.90;;;;;;5005035;28;20042;-78
2023/07/24 12:34:30;;;;;;;5.32;1.40;;;22.60;99.90;;;;;;5029834;28;20044;-78
2023/07/24 12:36:55;;;;;;;4.53;1.42;;;22.80;99.90;;;;;;5009693;28;20042;-77
2023/07/24 12:39:21;;;;;;;4.60;1.58;;;22.80;99.90;;;;;;5006257;28;20045;-78
2023/07/24 12:41:47;;;;;;;5.18;1.35;;;22.40;99.90;;;;;;5009678;28;20045;-77